Time;durP1;ratioP1;P1;durP2;ratioP2;P2;SDS_P1;SDS_P2;PMS_P1;PMS_P2;Temp;Humidity;BMP_temperature;BMP_pressure;BME280_temperature;BME280_humidity;BME280_pressure;Samples;Min_cycle;Max_cycle;Signal;HPM_P1;HPM_P2
2020/12/01 00:00:17;;;;;;;2.00;1.42;;;;;;;19.08;55.07;101308.22;5014344;28;20080;-76
2020/12/01 00:02:43;;;;;;;1.83;1.10;;;;;;;19.07;55.04;101303.84;5014203;28;20018;-76
2020/12/01 00:05:09;;;;;;;3.03;1.42;;;;;;;19.06;55.15;101307.31;5014266;28;20388;-76
2020/12/01 00:07:35;;;;;;;2.85;1.08;;;;;;;19.07;55.26;101306.47;5015354;28;20168;-76
2020/12/01 00:10:00;;;;;;;2.47;1.40;;;;;;;19.06;55.15;101306.44;4997731;28;20053;-76
2020/12/01 00:12:25;;;;;;;1.65;1.27;;;;;;;19.05;55.10;101307.31;5015147;28;20030;-76
2020/12/01 00:14:51;;;;;;;3.13;1.35;;;;;;;19.04;55.24;101303.81;5014867;28;20117;-75
2020/12/01 00:17:16;;;;;;;1.92;1.15;;;;;;;19.06;55.15;101309.06;4981162;28;20072;-76
2020/12/01 00:19:41;;;;;;;2.10;1.00;;;;;;;19.06;55.09;101314.31;5015049;28;20026;-76
2020/12/01 00:22:07;;;;;;;2.60;1.50;;;;;;;19.05;55.04;101312.56;5013726;28;20075;-76
2020/12/01 00:24:32;;;;;;;4.75;1.65;;;;;;;18.97;54.91;101294.19;5014635;28;20477;-76
2020/12/01 00:26:58;;;;;;;2.00;1.40;;;;;;;19.03;54.82;101311.69;5013574;28;20025;-76
2020/12/01 00:29:23;;;;;;;1.85;1.08;;;;;;;19.01;54.88;101313.44;5013632;28;20128;-76
2020/12/01 00:31:49;;;;;;;3.75;1.63;;;;;;;19.00;54.98;101314.31;4993700;28;20030;-76
2020/12/01 00:34:15;;;;;;;3.58;1.70;;;;;;;19.01;55.03;101313.44;4977787;28;20137;-76
2020/12/01 00:36:41;;;;;;;1.65;1.30;;;;;;;18.99;54.94;101317.78;5008327;28;20072;-75
2020/12/01 00:39:10;;;;;;;2.95;1.52;;;;;;;19.00;55.20;101316.91;5015207;28;20022;-76
2020/12/01 00:41:36;;;;;;;3.13;1.67;;;;;;;18.97;55.18;101315.16;5015863;28;20480;-77
2020/12/01 00:44:01;;;;;;;2.17;1.17;;;;;;;19.00;54.98;101322.16;4994681;28;20045;-76
2020/12/01 00:46:30;;;;;;;3.08;1.52;;;;;;;19.00;55.04;101316.91;4993487;28;20137;-76
2020/12/01 00:48:56;;;;;;;3.78;1.60;;;;;;;18.99;54.81;101313.44;4995067;28;20038;-76
2020/12/01 00:51:21;;;;;;;2.35;1.27;;;;;;;18.96;54.88;101307.28;4994759;28;20358;-76
2020/12/01 00:53:46;;;;;;;2.20;1.10;;;;;;;18.94;55.01;101303.81;4993932;28;20113;-76
2020/12/01 00:56:19;;;;;;;3.50;1.45;;;;;;;18.99;54.84;101304.69;4977061;28;20080;-76
2020/12/01 00:58:44;;;;;;;4.03;1.52;;;;;;;18.93;54.97;101300.34;4994910;28;20485;-76
2020/12/01 01:01:09;;;;;;;2.65;1.45;;;;;;;18.97;54.89;101311.66;4996618;28;20029;-76
2020/12/01 01:03:35;;;;;;;4.47;1.83;;;;;;;18.89;54.79;101296.81;5013279;28;20176;-76
2020/12/01 01:06:00;;;;;;;2.58;1.15;;;;;;;18.90;54.90;101290.72;4996555;28;20084;-77
2020/12/01 01:08:25;;;;;;;3.80;1.30;;;;;;;18.95;54.87;101301.22;4996336;28;20036;-76
2020/12/01 01:10:53;;;;;;;2.38;1.00;;;;;;;18.96;54.83;101302.06;5013056;28;20079;-76
2020/12/01 01:13:18;;;;;;;2.50;1.10;;;;;;;18.91;54.81;101305.56;4996757;28;20034;-76
2020/12/01 01:15:44;;;;;;;2.80;1.30;;;;;;;18.95;54.76;101305.56;4996415;28;20034;-76
2020/12/01 01:18:09;;;;;;;2.15;1.23;;;;;;;18.94;54.85;101303.81;5013988;28;20033;-76
2020/12/01 01:20:34;;;;;;;1.45;0.90;;;;;;;18.89;54.86;101299.44;5012914;28;20468;-76
2020/12/01 01:22:59;;;;;;;3.53;1.60;;;;;;;18.92;54.92;101301.19;5012325;28;20045;-76
2020/12/01 01:25:25;;;;;;;3.70;1.02;;;;;;;18.91;54.56;101309.94;5013056;28;20080;-76
2020/12/01 01:27:51;;;;;;;2.75;1.25;;;;;;;18.89;54.97;101298.56;5012848;28;20030;-76
2020/12/01 01:30:19;;;;;;;2.13;1.15;;;;;;;18.92;54.87;101309.94;4980206;28;20543;-76
2020/12/01 01:32:45;;;;;;;3.20;1.10;;;;;;;18.92;54.68;101304.69;5012881;28;20132;-76
2020/12/01 01:35:11;;;;;;;2.08;0.93;;;;;;;18.89;54.86;101304.69;5012746;28;20117;-76
2020/12/01 01:37:37;;;;;;;2.63;1.25;;;;;;;18.92;54.75;101309.06;5012580;28;20062;-76
2020/12/01 01:40:04;;;;;;;1.52;1.05;;;;;;;18.87;55.08;101300.31;4994583;28;20030;-76
2020/12/01 01:42:29;;;;;;;1.90;1.23;;;;;;;18.86;54.67;101304.69;5013849;28;20030;-76
2020/12/01 01:44:54;;;;;;;1.90;1.30;;;;;;;18.87;54.72;101306.44;4996180;28;20030;-75
2020/12/01 01:47:25;;;;;;;2.72;1.40;;;;;;;18.91;54.88;101315.19;4992233;28;20046;-76
2020/12/01 01:49:56;;;;;;;3.63;1.17;;;;;;;18.85;54.74;101302.94;4993883;28;20477;-76
2020/12/01 01:52:24;;;;;;;3.20;1.20;;;;;;;18.89;54.65;101315.19;4993137;28;20022;-75
2020/12/01 01:54:57;;;;;;;2.30;0.98;;;;;;;18.90;54.92;101316.03;5001422;28;20037;-76
2020/12/01 01:57:23;;;;;;;8.18;1.75;;;;;;;18.88;54.72;101308.19;5012069;28;20029;-76
2020/12/01 01:59:50;;;;;;;3.22;1.10;;;;;;;18.83;54.97;101303.78;5013255;28;20088;-76
2020/12/01 02:02:16;;;;;;;1.33;0.73;;;;;;;18.84;54.84;101305.53;4995856;28;20026;-76
2020/12/01 02:04:41;;;;;;;1.45;0.80;;;;;;;18.82;54.61;101302.94;4994913;28;20072;-76
2020/12/01 02:07:06;;;;;;;1.83;0.90;;;;;;;18.86;54.81;101312.53;5012359;28;20377;-76
2020/12/01 02:09:43;;;;;;;1.70;1.00;;;;;;;18.84;54.65;101305.53;5011849;28;20064;-76
2020/12/01 02:12:12;;;;;;;1.70;0.98;;;;;;;18.84;54.77;101305.53;5013528;28;20105;-76
2020/12/01 02:14:47;;;;;;;3.88;1.23;;;;;;;18.87;54.74;101313.41;5012097;28;20072;-75
2020/12/01 02:17:31;;;;;;;3.25;1.05;;;;;;;18.83;54.69;101309.91;5013492;28;20494;-76
2020/12/01 02:20:00;;;;;;;2.63;0.98;;;;;;;18.83;54.83;101303.78;5012123;28;20431;-76
2020/12/01 02:22:28;;;;;;;1.10;0.70;;;;;;;18.81;54.82;101300.31;5013468;28;20084;-76
2020/12/01 02:24:54;;;;;;;2.38;1.10;;;;;;;18.79;54.80;101296.81;4996137;28;20033;-75
2020/12/01 02:27:23;;;;;;;2.53;1.00;;;;;;;18.83;54.78;101309.91;5012274;28;20029;-76
2020/12/01 02:29:51;;;;;;;2.72;1.15;;;;;;;18.85;54.66;101305.56;5012073;28;20088;-76
2020/12/01 02:32:18;;;;;;;4.03;1.42;;;;;;;18.82;54.67;101296.84;5013203;28;20568;-76
2020/12/01 02:34:46;;;;;;;2.65;1.10;;;;;;;18.76;54.87;101288.94;4997675;28;20037;-76
2020/12/01 02:37:18;;;;;;;1.67;0.68;;;;;;;18.81;54.59;101306.44;5016945;28;20488;-76
2020/12/01 02:39:45;;;;;;;2.58;1.38;;;;;;;18.81;54.65;101295.09;5020283;28;20476;-76
2020/12/01 02:42:14;;;;;;;2.28;0.98;;;;;;;18.81;54.62;101292.47;5003763;28;20021;-76
2020/12/01 02:44:40;;;;;;;1.55;0.90;;;;;;;18.76;54.73;101281.09;5018462;28;20054;-75
2020/12/01 02:47:06;;;;;;;2.95;0.85;;;;;;;18.80;54.65;101285.47;5014405;28;20526;-75
2020/12/01 02:49:33;;;;;;;3.42;1.02;;;;;;;18.77;54.59;101288.97;5015328;28;20423;-76
2020/12/01 02:51:58;;;;;;;2.75;0.77;;;;;;;18.79;54.72;101295.09;5015244;28;20476;-75
2020/12/01 02:54:24;;;;;;;2.95;1.65;;;;;;;18.82;54.78;101295.09;4990190;28;20030;-75
2020/12/01 02:56:49;;;;;;;1.50;0.82;;;;;;;18.76;54.66;101276.72;4987440;28;20510;-76
2020/12/01 02:59:15;;;;;;;1.50;0.70;;;;;;;18.81;54.59;101293.34;4995488;28;20057;-76
2020/12/01 03:01:41;;;;;;;2.40;0.90;;;;;;;18.78;54.52;101276.72;4996929;28;20465;-76
2020/12/01 03:04:06;;;;;;;1.52;0.90;;;;;;;18.80;54.67;101278.50;4998951;28;20092;-76
2020/12/01 03:06:32;;;;;;;2.80;1.98;;;;;;;18.81;54.46;101288.09;5015251;28;20034;-75
2020/12/01 03:08:57;;;;;;;1.70;0.88;;;;;;;18.79;54.58;101271.50;5015149;28;20587;-76
2020/12/01 03:11:23;;;;;;;2.33;1.20;;;;;;;18.79;54.64;101273.25;5015125;28;20029;-76
2020/12/01 03:13:48;;;;;;;3.78;1.35;;;;;;;18.80;54.63;101261.91;5014897;28;20435;-75
2020/12/01 03:16:14;;;;;;;1.67;0.90;;;;;;;18.76;54.66;101263.63;5015074;28;20108;-75
2020/12/01 03:18:43;;;;;;;1.67;1.00;;;;;;;18.77;54.78;101277.59;5014724;28;20534;-75
2020/12/01 03:21:10;;;;;;;1.80;0.90;;;;;;;18.77;54.71;101270.63;5011630;28;20023;-75
2020/12/01 03:23:36;;;;;;;1.90;0.80;;;;;;;18.74;54.70;101259.25;4996393;28;20560;-76
2020/12/01 03:26:02;;;;;;;5.15;1.13;;;;;;;18.73;54.62;101266.25;4998450;28;20128;-75
2020/12/01 03:28:28;;;;;;;1.30;0.70;;;;;;;18.77;54.74;101274.97;5018386;28;20041;-76
2020/12/01 03:30:54;;;;;;;1.50;0.85;;;;;;;18.72;54.62;101274.97;5006475;28;20026;-76
2020/12/01 03:33:20;;;;;;;3.75;1.27;;;;;;;18.75;54.62;101274.97;4999109;28;20037;-76
2020/12/01 03:35:46;;;;;;;3.58;1.10;;;;;;;18.76;54.83;101268.00;5008394;28;20044;-75
2020/12/01 03:38:12;;;;;;;1.33;0.85;;;;;;;18.74;54.60;101283.72;5014651;28;20037;-75
2020/12/01 03:40:37;;;;;;;1.83;1.05;;;;;;;18.72;54.88;101285.44;5014529;28;20034;-76
2020/12/01 03:43:03;;;;;;;2.83;1.23;;;;;;;18.76;54.75;101275.84;4982121;28;20026;-76
2020/12/01 03:45:28;;;;;;;2.33;1.00;;;;;;;18.72;54.72;101279.34;5015044;28;20038;-76
2020/12/01 03:47:55;;;;;;;2.10;1.30;;;;;;;18.72;54.78;101292.44;5014141;28;20411;-76
2020/12/01 03:50:22;;;;;;;2.60;1.02;;;;;;;18.75;54.60;101295.06;4997983;28;20037;-76
2020/12/01 03:52:49;;;;;;;3.05;1.45;;;;;;;18.69;54.77;101284.59;5015669;28;20041;-76
2020/12/01 03:55:14;;;;;;;2.53;0.80;;;;;;;18.72;54.79;101301.16;5014168;28;20056;-76
2020/12/01 03:57:42;;;;;;;1.77;0.90;;;;;;;18.72;54.69;101298.53;5014239;28;20441;-76
2020/12/01 04:00:10;;;;;;;2.25;1.02;;;;;;;18.72;54.43;101306.41;5013737;28;20400;-76
2020/12/01 04:02:35;;;;;;;3.13;1.17;;;;;;;18.68;54.68;101299.44;5014020;28;20045;-76
2020/12/01 04:05:01;;;;;;;3.50;1.10;;;;;;;18.71;54.74;101317.75;4997744;28;20408;-76
2020/12/01 04:07:26;;;;;;;3.90;1.85;;;;;;;18.70;54.97;101318.63;4997640;28;20805;-76
2020/12/01 04:09:51;;;;;;;3.38;1.40;;;;;;;18.71;54.83;101303.78;4981519;28;20037;-75
2020/12/01 04:12:17;;;;;;;3.13;0.93;;;;;;;18.67;54.81;101318.66;5013937;28;20511;-76
2020/12/01 04:14:42;;;;;;;3.15;0.90;;;;;;;18.69;54.70;101311.66;5015094;28;20030;-76
2020/12/01 04:17:07;;;;;;;2.80;1.20;;;;;;;18.69;54.47;101322.16;5014890;28;20118;-76
2020/12/01 04:19:33;;;;;;;2.60;0.93;;;;;;;18.67;54.62;101308.16;5015224;28;20058;-76
2020/12/01 04:21:58;;;;;;;1.75;1.00;;;;;;;18.69;54.57;101326.50;5013756;28;20061;-76
2020/12/01 04:24:23;;;;;;;2.10;1.38;;;;;;;18.66;54.38;101324.75;4993877;28;20057;-76
2020/12/01 04:26:49;;;;;;;1.63;0.90;;;;;;;18.67;54.80;101333.50;4961947;28;20038;-75
2020/12/01 04:29:14;;;;;;;2.33;0.90;;;;;;;18.67;54.67;101338.72;4977733;28;20128;-76
2020/12/01 04:31:39;;;;;;;2.25;1.02;;;;;;;18.68;54.67;101348.34;4977600;28;20485;-76
2020/12/01 04:34:05;;;;;;;3.85;1.20;;;;;;;18.67;54.76;101343.97;4994139;28;20532;-75
2020/12/01 04:36:30;;;;;;;2.97;1.20;;;;;;;18.68;54.69;101350.97;5013440;28;20484;-76
2020/12/01 04:38:55;;;;;;;2.05;1.13;;;;;;;18.67;54.66;101343.97;5015293;28;20403;-75
2020/12/01 04:41:21;;;;;;;2.08;0.95;;;;;;;18.68;54.78;101353.56;5013147;28;20361;-75
2020/12/01 04:43:56;;;;;;;2.38;0.93;;;;;;;18.67;54.94;101355.31;5014492;28;20419;-76
2020/12/01 04:46:25;;;;;;;3.88;1.30;;;;;;;18.67;54.60;101362.31;5013462;28;20049;-75
2020/12/01 04:48:54;;;;;;;2.22;1.17;;;;;;;18.65;54.80;101358.81;5000057;28;20057;-76
2020/12/01 04:51:38;;;;;;;3.58;0.98;;;;;;;18.66;54.69;101373.66;5014419;28;20376;-75
2020/12/01 04:54:22;;;;;;;2.35;1.10;;;;;;;18.70;54.44;101376.25;5012274;28;20038;-76
2020/12/01 04:57:25;;;;;;;2.33;0.98;;;;;;;18.77;54.39;101378.03;5012069;28;20080;-75
2020/12/01 05:00:09;;;;;;;1.17;0.80;;;;;;;18.78;54.30;101377.19;5009514;28;20084;-76
2020/12/01 05:02:37;;;;;;;;;;;;;;;18.83;54.24;101374.53;5013261;28;20030;-75
2020/12/01 05:05:33;;;;;;;2.30;1.35;;;;;;;18.88;54.11;101370.19;5012950;28;20328;-76
2020/12/01 05:08:17;;;;;;;1.27;0.70;;;;;;;18.87;54.51;101379.81;4993402;28;20030;-76
2020/12/01 05:10:47;;;;;;;1.40;0.68;;;;;;;18.89;54.32;101385.94;5008713;28;20018;-75
2020/12/01 05:13:28;;;;;;;2.42;0.75;;;;;;;18.90;53.85;101382.44;5012928;28;20030;-75
2020/12/01 05:16:07;;;;;;;2.00;1.00;;;;;;;18.92;54.44;101398.16;5013201;28;20033;-76
2020/12/01 05:18:33;;;;;;;2.85;1.38;;;;;;;18.90;54.32;101398.16;5013915;28;20113;-76
2020/12/01 05:21:05;;;;;;;3.17;1.70;;;;;;;18.98;54.25;101406.03;4996636;28;20053;-76
2020/12/01 05:23:40;;;;;;;2.05;1.30;;;;;;;18.96;54.19;101404.28;5012820;28;20476;-75
2020/12/01 05:26:12;;;;;;;3.00;1.67;;;;;;;18.91;54.42;101418.25;5012436;28;20026;-75
2020/12/01 05:28:55;;;;;;;1.45;0.85;;;;;;;19.02;54.16;101428.75;5006056;28;20366;-75
2020/12/01 05:31:24;;;;;;;2.50;1.00;;;;;;;18.96;54.41;101431.34;5010711;28;20503;-76
2020/12/01 05:34:01;;;;;;;2.55;1.15;;;;;;;18.96;54.34;101440.97;5012159;28;20030;-76
2020/12/01 05:36:32;;;;;;;1.42;0.75;;;;;;;19.01;54.32;101436.63;5012379;28;20079;-75
2020/12/01 05:39:02;;;;;;;2.33;1.33;;;;;;;19.03;54.22;101443.63;4994144;28;20153;-75
2020/12/01 05:41:34;;;;;;;3.08;1.27;;;;;;;18.99;54.58;101448.84;4997938;28;20041;-75
2020/12/01 05:44:04;;;;;;;2.72;1.00;;;;;;;18.95;54.72;101440.13;5013518;28;20026;-76
2020/12/01 05:46:41;;;;;;;2.60;1.20;;;;;;;18.90;54.62;101447.09;5013448;28;20403;-75
2020/12/01 05:49:24;;;;;;;2.17;0.88;;;;;;;18.90;54.85;101468.03;5012004;28;20181;-75
2020/12/01 05:51:59;;;;;;;1.52;1.05;;;;;;;18.91;54.95;101465.44;5013416;28;20030;-75
2020/12/01 05:54:46;;;;;;;3.58;1.30;;;;;;;18.85;54.99;101467.13;5013559;28;20508;-76
2020/12/01 05:57:30;;;;;;;3.33;0.90;;;;;;;18.88;54.89;101480.25;5013005;28;20033;-76
2020/12/01 06:00:17;;;;;;;3.80;1.60;;;;;;;18.81;54.86;101468.03;4996175;28;20037;-76
2020/12/01 06:03:17;;;;;;;7.10;1.80;;;;;;;18.87;54.68;101486.38;5009405;28;20030;-76
2020/12/01 06:05:46;;;;;;;5.32;2.20;;;;;;;18.84;54.87;101483.72;5008654;28;20427;-79
2020/12/01 06:08:51;;;;;;;7.57;2.30;;;;;;;18.89;54.87;101496.00;5013226;28;20403;-78
2020/12/01 06:11:28;;;;;;;;;;;;;;;18.90;54.74;101491.63;5000838;28;20029;-77
2020/12/01 06:13:59;;;;;;;4.65;1.92;;;;;;;18.90;54.74;101502.13;5001061;28;19917;-76
2020/12/01 06:16:34;;;;;;;5.38;1.92;;;;;;;18.89;54.85;101503.84;5016897;28;20383;-78
2020/12/01 06:18:59;;;;;;;9.25;2.72;;;;;;;18.87;55.19;101510.84;5016125;28;20021;-78
2020/12/01 06:21:37;;;;;;;6.35;2.38;;;;;;;18.90;55.03;101513.47;5016776;28;20018;-76
2020/12/01 06:24:47;;;;;;;5.93;2.38;;;;;;;18.87;54.99;101518.69;5015928;28;20424;-75
2020/12/01 06:27:28;;;;;;;4.40;2.42;;;;;;;18.85;55.15;101527.41;5014744;28;20037;-76
2020/12/01 06:30:15;;;;;;;9.52;2.33;;;;;;;18.84;55.14;101537.03;5018103;28;20034;-76
2020/12/01 06:33:20;;;;;;;6.57;2.47;;;;;;;18.82;55.12;101532.66;5009731;28;20029;-77
2020/12/01 06:36:11;;;;;;;9.90;2.40;;;;;;;18.86;55.35;101540.53;5008282;28;20029;-76
2020/12/01 06:38:48;;;;;;;5.93;2.72;;;;;;;18.86;55.34;101548.38;4978599;28;20095;-76
2020/12/01 06:41:17;;;;;;;4.88;2.20;;;;;;;18.85;55.28;101553.63;5016529;28;20045;-76
2020/12/01 06:43:47;;;;;;;5.40;2.40;;;;;;;18.84;55.24;101552.75;5016487;28;20499;-76
2020/12/01 06:46:39;;;;;;;6.82;2.65;;;;;;;18.83;55.24;101558.84;5019683;28;20061;-75
2020/12/01 06:49:14;;;;;;;11.80;3.22;;;;;;;18.81;55.39;101565.84;5014946;28;20037;-76
2020/12/01 06:51:39;;;;;;;3.95;2.10;;;;;;;18.81;55.42;101570.22;5031777;28;20053;-76
2020/12/01 06:54:09;;;;;;;6.97;2.40;;;;;;;18.73;55.29;101558.78;5013520;28;21195;-76
2020/12/01 06:56:35;;;;;;;6.25;2.88;;;;;;;18.75;55.29;101578.03;4996599;28;20504;-75
2020/12/01 06:59:12;;;;;;;11.00;2.92;;;;;;;18.77;55.26;101579.78;4995593;28;20030;-76
2020/12/01 07:01:40;;;;;;;8.48;2.95;;;;;;;18.76;55.42;101579.78;4996670;28;20491;-76
2020/12/01 07:04:19;;;;;;;8.07;2.78;;;;;;;18.76;55.29;101591.16;4986876;28;20397;-75
2020/12/01 07:06:52;;;;;;;6.47;2.67;;;;;;;18.77;55.13;101581.53;4996579;28;20520;-76
2020/12/01 07:09:28;;;;;;;6.70;2.30;;;;;;;18.86;54.89;101592.06;4996570;28;20038;-75
2020/12/01 07:12:17;;;;;;;4.28;1.75;;;;;;;18.92;54.66;101599.97;4995079;28;20031;-76
2020/12/01 07:14:59;;;;;;;5.93;2.17;;;;;;;18.91;54.62;101590.34;4995354;28;20034;-76
2020/12/01 07:17:29;;;;;;;7.55;1.80;;;;;;;18.99;54.54;101599.13;5008537;28;20033;-76
2020/12/01 07:20:13;;;;;;;5.40;2.65;;;;;;;19.02;54.64;101600.88;5014440;28;20026;-76
2020/12/01 07:22:47;;;;;;;6.07;2.05;;;;;;;19.01;54.55;101607.88;5013367;28;20041;-76
2020/12/01 07:25:30;;;;;;;7.22;2.45;;;;;;;19.06;54.22;101602.66;5015580;28;20065;-75
2020/12/01 07:27:56;;;;;;;7.28;2.95;;;;;;;19.08;54.52;101611.41;4996178;28;20508;-76
2020/12/01 07:30:27;;;;;;;4.07;1.90;;;;;;;19.06;54.40;101621.00;5008757;28;20033;-76
2020/12/01 07:32:56;;;;;;;5.80;3.20;;;;;;;19.16;54.21;101630.66;5012752;28;20559;-76
2020/12/01 07:36:10;;;;;;;4.93;2.17;;;;;;;19.13;54.18;101631.53;5014165;28;20064;-76
2020/12/01 07:38:40;;;;;;;;;;;;;;;19.10;54.32;101633.25;5009334;28;20040;-79
2020/12/01 07:41:22;;;;;;;6.50;1.95;;;;;;;19.16;54.15;101647.28;5014148;28;19913;-75
2020/12/01 07:44:03;;;;;;;4.47;2.28;;;;;;;19.12;54.44;101635.00;5014185;28;20419;-75
2020/12/01 07:46:29;;;;;;;5.13;2.38;;;;;;;19.08;54.55;101637.63;5013069;28;20452;-76
2020/12/01 07:49:02;;;;;;;6.80;2.25;;;;;;;19.19;54.29;101636.81;5014937;28;20057;-75
2020/12/01 07:51:30;;;;;;;6.03;2.30;;;;;;;19.15;54.29;101649.88;5014391;28;20022;-75
2020/12/01 07:53:58;;;;;;;3.83;2.05;;;;;;;19.16;54.36;101659.50;5014700;28;20029;-75
2020/12/01 07:56:29;;;;;;;4.82;1.50;;;;;;;19.22;54.42;101649.91;5014617;28;20073;-75
2020/12/01 07:59:00;;;;;;;4.00;1.90;;;;;;;19.21;54.15;101649.94;5015284;28;20173;-75
2020/12/01 08:01:26;;;;;;;4.15;1.23;;;;;;;19.19;54.20;101664.78;5006847;28;20030;-75
2020/12/01 08:03:51;;;;;;;4.00;2.58;;;;;;;19.22;54.30;101681.38;5014183;28;20026;-75
2020/12/01 08:06:17;;;;;;;2.97;1.73;;;;;;;19.21;54.19;101670.91;4997001;28;20076;-75
2020/12/01 08:08:45;;;;;;;4.55;1.70;;;;;;;19.21;54.28;101684.03;4995637;28;20030;-75
2020/12/01 08:11:18;;;;;;;3.30;1.95;;;;;;;19.26;54.28;101684.91;5012608;28;20073;-76
2020/12/01 08:13:44;;;;;;;3.42;1.40;;;;;;;19.20;54.16;101685.78;5012971;28;20034;-75
2020/12/01 08:16:19;;;;;;;3.47;1.52;;;;;;;19.22;54.18;101696.22;4996293;28;20088;-75
2020/12/01 08:18:46;;;;;;;2.63;1.38;;;;;;;19.26;54.21;101693.66;5012493;28;20117;-75
2020/12/01 08:21:14;;;;;;;3.85;1.90;;;;;;;19.28;54.23;101702.41;5012706;28;20427;-75
2020/12/01 08:23:43;;;;;;;3.35;1.77;;;;;;;19.26;54.11;101714.63;5011679;28;20022;-76
2020/12/01 08:26:16;;;;;;;3.05;1.67;;;;;;;19.27;54.07;101705.91;5013003;28;20037;-75
2020/12/01 08:28:46;;;;;;;3.35;1.73;;;;;;;19.30;54.16;101709.41;5011895;28;20030;-75
2020/12/01 08:31:42;;;;;;;3.72;1.50;;;;;;;19.27;53.98;101705.00;5013481;28;20456;-75
2020/12/01 08:34:32;;;;;;;2.47;1.45;;;;;;;19.31;54.14;101709.41;4995716;28;20774;-75
2020/12/01 08:37:29;;;;;;;3.30;1.38;;;;;;;19.32;54.00;101712.91;5009644;28;20116;-75
2020/12/01 08:40:37;;;;;;;3.20;1.60;;;;;;;19.29;53.87;101719.03;5011390;28;20084;-75
2020/12/01 08:43:17;;;;;;;2.28;1.23;;;;;;;19.36;54.04;101722.53;4965913;28;20524;-75
2020/12/01 08:45:53;;;;;;;3.42;1.27;;;;;;;19.30;53.83;101730.38;5001818;28;20055;-76
2020/12/01 08:48:39;;;;;;;2.50;1.38;;;;;;;19.31;54.04;101727.78;4985288;28;20064;-75
2020/12/01 08:51:28;;;;;;;4.07;1.75;;;;;;;19.36;53.99;101726.03;4979345;28;20034;-75
2020/12/01 08:54:12;;;;;;;2.50;1.35;;;;;;;19.34;53.95;101735.66;4976712;28;20034;-76
2020/12/01 08:56:46;;;;;;;;;;;;;;;19.33;54.04;101731.28;4974460;28;20018;-75
2020/12/01 08:59:18;;;;;;;2.83;1.50;;;;;;;19.38;53.84;101742.66;4993964;28;19922;-75
2020/12/01 09:01:44;;;;;;;2.72;1.20;;;;;;;19.31;53.75;101734.78;4995870;28;20017;-75
2020/12/01 09:04:23;;;;;;;5.85;1.70;;;;;;;19.35;53.99;101739.13;4995149;28;20034;-75
2020/12/01 09:06:48;;;;;;;2.50;1.08;;;;;;;19.36;53.99;101739.16;4990365;28;20097;-75
2020/12/01 09:09:26;;;;;;;2.95;1.20;;;;;;;19.34;53.87;101750.53;4969805;28;20462;-75
2020/12/01 09:15:05;;;;;;;3.28;1.15;;;;;;;19.39;53.91;101756.66;4991029;28;20494;-76
2020/12/01 09:21:52;;;;;;;3.97;1.10;;;;;;;19.41;53.64;101766.31;4993501;28;20470;-76
2020/12/01 09:23:22;;;;;;;3.47;1.58;;;;;;;19.39;53.83;101757.53;4984743;28;20038;-75
2020/12/01 09:25:50;;;;;;;4.15;1.90;;;;;;;19.37;53.84;101763.63;4993341;28;20042;-76
2020/12/01 09:28:24;;;;;;;5.50;1.67;;;;;;;19.44;53.69;101770.69;4994236;28;20034;-75
2020/12/01 09:30:50;;;;;;;2.78;1.20;;;;;;;19.43;53.67;101771.56;4993799;28;20022;-75
2020/12/01 09:33:22;;;;;;;2.60;1.17;;;;;;;19.41;54.29;101775.91;4975926;28;20030;-75
2020/12/01 09:35:49;;;;;;;3.22;1.38;;;;;;;19.43;53.95;101776.81;4993260;28;20061;-75
2020/12/01 09:38:15;;;;;;;2.85;1.05;;;;;;;19.44;53.59;101789.94;4993297;28;20046;-75
2020/12/01 09:40:42;;;;;;;3.50;1.10;;;;;;;19.38;53.58;101786.38;4956106;28;20023;-75
2020/12/01 09:45:54;;;;;;;2.70;1.50;;;;;;;19.40;53.44;101788.16;4984554;28;20109;-76
2020/12/01 09:48:30;;;;;;;2.35;1.20;;;;;;;19.41;53.78;101795.16;4958566;28;20035;-75
2020/12/01 09:50:56;;;;;;;2.65;0.93;;;;;;;19.45;53.73;101799.56;4959163;28;20447;-76
2020/12/01 09:56:07;;;;;;;3.03;0.93;;;;;;;19.44;53.54;101797.81;4962596;28;20038;-75
2020/12/01 10:09:24;;;;;;;3.85;1.33;;;;;;;19.54;53.26;101810.13;4994677;28;19920;-73
2020/12/01 10:12:12;;;;;;;2.92;1.33;;;;;;;19.54;53.34;101809.25;5010562;28;20061;-77
2020/12/01 10:26:51;;;;;;;1.65;0.95;;;;;;;19.54;53.62;101814.50;5006985;28;20100;-74
2020/12/01 10:36:23;;;;;;;;;;;;;;;19.61;53.47;101826.78;4972774;28;20046;-76
2020/12/01 10:38:49;;;;;;;2.63;0.82;;;;;;;19.55;53.24;101806.66;4975049;28;19913;-76
2020/12/01 10:41:15;;;;;;;2.92;1.13;;;;;;;19.59;53.36;101812.78;4975460;28;20041;-74
2020/12/01 10:43:40;;;;;;;3.10;1.00;;;;;;;19.63;52.88;101818.06;4944101;28;20030;-75
2020/12/01 10:46:08;;;;;;;2.35;1.13;;;;;;;19.60;52.95;101810.16;4943593;28;20049;-76
2020/12/01 10:48:33;;;;;;;3.33;1.73;;;;;;;19.59;53.32;101823.28;4996406;28;20052;-74
2020/12/01 10:50:59;;;;;;;1.60;0.82;;;;;;;19.62;53.11;101823.28;5016330;28;20033;-73
2020/12/01 10:53:24;;;;;;;2.13;1.02;;;;;;;19.62;53.05;101823.28;4991372;28;20068;-74
2020/12/01 10:55:49;;;;;;;2.92;1.10;;;;;;;19.62;53.18;101829.41;4982634;28;20077;-73
2020/12/01 10:58:15;;;;;;;2.97;1.00;;;;;;;19.63;53.07;101825.03;5003454;28;20408;-74
2020/12/01 11:00:40;;;;;;;1.67;0.80;;;;;;;19.65;53.03;101825.94;4996916;28;20034;-76
2020/12/01 11:03:05;;;;;;;2.20;0.80;;;;;;;19.60;53.11;101819.81;4994080;28;20030;-76
2020/12/01 11:05:31;;;;;;;1.83;0.70;;;;;;;19.60;53.31;101828.53;4996163;28;20033;-76
2020/12/01 11:07:57;;;;;;;2.22;1.30;;;;;;;19.67;53.00;101834.69;5014285;28;20029;-76
2020/12/01 11:10:24;;;;;;;2.85;0.82;;;;;;;19.60;53.21;101819.81;5013716;28;20230;-75
2020/12/01 11:12:50;;;;;;;3.28;1.23;;;;;;;19.62;53.02;101821.53;5015326;28;20033;-75
2020/12/01 11:15:16;;;;;;;2.55;1.00;;;;;;;19.65;52.86;101818.06;5013777;28;20033;-76
2020/12/01 11:17:42;;;;;;;2.63;1.05;;;;;;;19.70;53.05;101833.84;5013907;28;20041;-76
2020/12/01 11:20:10;;;;;;;2.47;0.93;;;;;;;19.65;52.77;101827.69;5014342;28;20034;-76
2020/12/01 11:22:35;;;;;;;1.73;1.10;;;;;;;19.71;52.77;101839.09;4997472;28;20061;-76
2020/12/01 11:25:00;;;;;;;1.40;0.68;;;;;;;19.67;52.92;101845.19;4996604;28;20061;-74
2020/12/01 11:27:26;;;;;;;1.75;0.88;;;;;;;19.67;53.21;101849.56;5013694;28;20080;-74
2020/12/01 11:29:51;;;;;;;2.42;1.08;;;;;;;19.69;52.78;101843.47;5014702;28;20472;-74
2020/12/01 11:32:17;;;;;;;2.65;0.90;;;;;;;19.66;52.95;101845.19;5014945;28;20411;-74
2020/12/01 11:34:43;;;;;;;2.00;0.90;;;;;;;19.66;53.13;101851.31;5033486;28;20490;-74
2020/12/01 11:37:08;;;;;;;1.95;0.85;;;;;;;19.70;52.64;101847.84;5017896;28;20037;-73
2020/12/01 11:39:33;;;;;;;2.45;1.08;;;;;;;19.71;52.78;101852.22;4996767;28;20042;-73
2020/12/01 11:41:59;;;;;;;2.17;1.20;;;;;;;19.67;52.98;101853.06;5013363;28;20065;-74
2020/12/01 11:44:24;;;;;;;1.95;1.02;;;;;;;19.70;52.62;101852.22;5013177;28;20438;-74
2020/12/01 11:46:50;;;;;;;2.75;1.17;;;;;;;19.73;52.95;101862.75;4996752;28;20073;-74
2020/12/01 11:49:15;;;;;;;2.05;0.98;;;;;;;19.68;53.17;101849.56;4996637;28;20033;-74
2020/12/01 11:51:41;;;;;;;2.15;1.00;;;;;;;19.73;52.89;101858.38;5012348;28;20034;-74
2020/12/01 11:54:10;;;;;;;3.75;0.95;;;;;;;19.73;52.86;101861.00;5014130;28;20034;-74
2020/12/01 11:56:35;;;;;;;2.80;0.90;;;;;;;19.70;52.99;101858.34;5014893;28;20049;-74
2020/12/01 11:59:01;;;;;;;1.67;0.75;;;;;;;19.74;52.83;101861.84;5013247;28;20472;-74
2020/12/01 12:01:27;;;;;;;1.98;1.00;;;;;;;19.81;52.25;101851.41;4993928;28;20018;-73
2020/12/01 12:03:52;;;;;;;1.83;1.27;;;;;;;19.77;52.66;101844.38;4995773;28;20472;-73
2020/12/01 12:06:17;;;;;;;3.47;1.00;;;;;;;19.76;52.91;101846.97;5008317;28;20038;-74
2020/12/01 12:08:43;;;;;;;1.92;0.88;;;;;;;19.81;53.07;101855.78;5011887;28;20125;-74
2020/12/01 12:11:09;;;;;;;3.15;1.13;;;;;;;19.74;52.95;101846.97;5014029;28;20038;-74
2020/12/01 12:13:35;;;;;;;1.83;0.90;;;;;;;19.77;53.19;101860.13;5019762;28;20377;-74
2020/12/01 12:16:00;;;;;;;2.90;0.70;;;;;;;19.86;52.99;101856.69;4999499;28;20030;-75
2020/12/01 12:18:25;;;;;;;3.53;1.00;;;;;;;19.88;52.92;101857.53;5013254;28;20026;-75
2020/12/01 12:20:51;;;;;;;3.33;1.23;;;;;;;19.82;52.88;101866.28;4991983;28;20029;-74
2020/12/01 12:23:16;;;;;;;5.68;1.10;;;;;;;19.73;53.06;101868.00;5028729;28;20026;-74